createdAt,value
2018-12-21T00:01:27.476Z,117.37
2018-12-21T00:04:18.107Z,118.57
2018-12-21T00:07:08.497Z,118.35
2018-12-21T00:09:58.651Z,118.70
2018-12-21T00:12:51.085Z,117.10
2018-12-21T00:15:41.476Z,118.35
2018-12-21T00:18:32.614Z,118.97
2018-12-21T00:21:21.878Z,120.90
2018-12-21T00:24:11.804Z,122.40
2018-12-21T00:27:00.735Z,122.70
2018-12-21T00:29:49.425Z,121.80
2018-12-21T00:32:42.889Z,122.10
2018-12-21T00:35:36.922Z,124.53
2018-12-21T00:38:30.828Z,120.40
2018-12-21T00:41:23.624Z,121.02
2018-12-21T00:44:27.139Z,121.53
2018-12-21T00:47:18.194Z,116.47
2018-12-21T00:50:06.000Z,119.45
2018-12-21T00:52:54.463Z,118.85
2018-12-21T00:55:45.166Z,120.13
2018-12-21T00:58:33.428Z,123.75
2018-12-21T01:01:22.696Z,120.67
2018-12-21T01:04:10.866Z,119.95
2018-12-21T01:07:00.876Z,119.82
2018-12-21T01:09:49.160Z,121.50
2018-12-21T01:12:38.429Z,119.97
2018-12-21T01:15:27.132Z,122.07
2018-12-21T01:18:17.073Z,117.85
2018-12-21T01:21:05.748Z,122.15
2018-12-21T01:23:53.858Z,123.80
2018-12-21T01:26:42.393Z,119.97
2018-12-21T01:29:30.252Z,118.72
2018-12-21T01:32:17.973Z,126.40
2018-12-21T01:35:08.087Z,121.37
2018-12-21T01:37:55.950Z,122.60
2018-12-21T01:40:45.370Z,123.07
2018-12-21T01:43:33.325Z,119.17
2018-12-21T01:46:21.901Z,120.33
2018-12-21T01:49:10.524Z,123.07
2018-12-21T01:51:59.098Z,122.70
2018-12-21T01:54:47.038Z,122.60
2018-12-21T01:57:35.567Z,120.55
2018-12-21T02:00:23.767Z,123.47
2018-12-21T02:03:12.082Z,119.95
2018-12-21T02:05:59.508Z,119.87
2018-12-21T02:08:47.848Z,119.45
2018-12-21T02:11:35.353Z,125.87
2018-12-21T02:14:24.288Z,118.57
2018-12-21T02:17:12.317Z,119.50
2018-12-21T02:20:00.193Z,117.10
2018-12-21T02:22:49.424Z,119.90
2018-12-21T02:25:36.971Z,118.05
2018-12-21T02:28:25.148Z,113.95
2018-12-21T02:31:12.966Z,116.15
2018-12-21T02:34:01.934Z,118.42
2018-12-21T02:36:52.518Z,118.97
2018-12-21T02:39:40.101Z,117.62
2018-12-21T02:42:28.147Z,119.62
2018-12-21T02:45:16.045Z,116.37
2018-12-21T02:48:05.972Z,119.65
2018-12-21T02:50:54.661Z,116.82
2018-12-21T02:53:42.838Z,116.28
2018-12-21T02:56:31.157Z,114.95
2018-12-21T02:59:18.950Z,117.17
2018-12-21T03:02:07.547Z,116.37
2018-12-21T03:04:56.150Z,112.68
2018-12-21T03:07:43.943Z,111.52
2018-12-21T03:10:32.882Z,111.05
2018-12-21T03:13:20.864Z,112.35
2018-12-21T03:16:10.211Z,112.55
2018-12-21T03:18:58.358Z,111.08
2018-12-21T03:21:46.416Z,111.25
2018-12-21T03:24:34.084Z,108.15
2018-12-21T03:27:22.169Z,110.48
2018-12-21T03:30:11.771Z,111.97
2018-12-21T03:33:01.335Z,111.37
2018-12-21T03:35:49.737Z,107.37
2018-12-21T03:38:37.877Z,110.48
2018-12-21T03:41:26.675Z,106.32
2018-12-21T03:44:16.874Z,106.12
2018-12-21T03:47:04.601Z,104.58
2018-12-21T03:49:52.650Z,107.67
2018-12-21T03:52:40.319Z,108.47
2018-12-21T03:55:28.441Z,105.20
2018-12-21T03:58:16.364Z,104.03
2018-12-21T04:01:05.057Z,104.40
2018-12-21T04:03:52.520Z,104.90
2018-12-21T04:06:41.478Z,103.72
2018-12-21T04:09:29.487Z,101.58
2018-12-21T04:12:18.841Z,104.45
2018-12-21T04:15:07.284Z,102.27
2018-12-21T04:17:57.067Z,104.35
2018-12-21T04:20:48.308Z,100.20
2018-12-21T04:23:36.902Z,98.97
2018-12-21T04:26:25.169Z,97.95
2018-12-21T04:29:13.157Z,98.62
2018-12-21T04:32:01.126Z,100.95
2018-12-21T04:34:48.841Z,98.65
2018-12-21T04:37:36.705Z,95.30
2018-12-21T04:40:25.058Z,97.97
2018-12-21T04:43:12.451Z,99.05
2018-12-21T04:48:52.012Z,96.47
2018-12-21T04:51:40.378Z,94.30
2018-12-21T04:54:27.860Z,94.28
2018-12-21T04:57:15.966Z,95.92
2018-12-21T05:00:04.016Z,94.92
2018-12-21T05:02:51.548Z,95.30
2018-12-21T05:05:39.564Z,94.65
2018-12-21T05:08:28.584Z,93.75
2018-12-21T05:11:16.683Z,94.15
2018-12-21T05:14:07.955Z,91.42
2018-12-21T05:16:56.204Z,92.33
2018-12-21T05:19:45.558Z,93.12
2018-12-21T05:22:37.910Z,91.65
2018-12-21T05:25:27.369Z,92.97
2018-12-21T05:28:15.229Z,92.30
2018-12-21T05:31:03.588Z,92.62
2018-12-21T05:33:57.619Z,87.82
2018-12-21T05:36:46.214Z,88.58
2018-12-21T05:39:35.517Z,88.52
2018-12-21T05:42:23.940Z,90.85
2018-12-21T05:45:13.116Z,88.22
2018-12-21T05:48:03.075Z,86.50
2018-12-21T05:50:53.103Z,83.27
2018-12-21T05:53:43.224Z,83.55
2018-12-21T05:56:32.477Z,85.00
2018-12-21T05:59:27.258Z,85.75
2018-12-21T06:02:15.664Z,83.52
2018-12-21T06:05:04.047Z,82.05
2018-12-21T06:07:55.254Z,80.80
2018-12-21T06:10:45.514Z,82.40
2018-12-21T06:13:36.316Z,82.50
2018-12-21T06:16:27.394Z,80.22
2018-12-21T06:19:16.317Z,80.38
2018-12-21T06:22:04.959Z,75.92
2018-12-21T06:24:52.764Z,78.67
2018-12-21T06:27:40.723Z,76.65
2018-12-21T06:33:22.481Z,74.95
2018-12-21T06:36:15.454Z,75.32
2018-12-21T06:39:04.922Z,71.07
2018-12-21T06:41:53.499Z,74.12
2018-12-21T06:44:44.311Z,75.08
2018-12-21T06:47:32.443Z,73.42
2018-12-21T06:50:24.318Z,73.97
2018-12-21T06:53:18.047Z,72.05
2018-12-21T06:56:07.329Z,70.55
2018-12-21T06:59:01.163Z,71.25
2018-12-21T07:01:52.151Z,70.85
2018-12-21T07:04:43.346Z,65.78
2018-12-21T07:07:33.606Z,71.00
2018-12-21T07:10:22.928Z,70.83
2018-12-21T07:13:14.558Z,68.28
2018-12-21T07:16:03.225Z,65.35
2018-12-21T07:18:53.129Z,68.20
2018-12-21T07:21:48.660Z,66.45
2018-12-21T07:24:36.272Z,65.55
2018-12-21T07:27:24.630Z,65.50
2018-12-21T07:30:15.079Z,66.65
2018-12-21T07:33:03.646Z,64.80
2018-12-21T07:35:51.830Z,65.25
2018-12-21T07:38:41.148Z,63.50
2018-12-21T07:41:29.298Z,64.65
2018-12-21T07:44:17.166Z,62.15
2018-12-21T07:47:05.788Z,61.35
2018-12-21T07:50:02.436Z,63.25
2018-12-21T07:52:50.992Z,63.00
2018-12-21T07:55:42.699Z,60.00
2018-12-21T07:58:33.804Z,57.90
2018-12-21T08:01:23.423Z,61.33
2018-12-21T08:04:13.375Z,58.50
2018-12-21T08:07:07.917Z,58.68
2018-12-21T08:09:57.978Z,57.88
2018-12-21T08:12:50.893Z,58.75
2018-12-21T08:15:41.832Z,57.88
2018-12-21T08:18:30.483Z,58.60
2018-12-21T08:21:18.347Z,56.25
2018-12-21T08:24:06.713Z,57.55
2018-12-21T08:26:54.739Z,56.05
2018-12-21T08:29:42.749Z,55.92
2018-12-21T08:32:30.959Z,55.03
2018-12-21T08:35:20.370Z,55.90
2018-12-21T08:38:08.490Z,55.15
2018-12-21T08:40:57.583Z,54.20
2018-12-21T08:43:50.697Z,54.77
2018-12-21T08:46:38.977Z,53.58
2018-12-21T08:49:26.391Z,54.55
2018-12-21T08:52:16.223Z,53.20
2018-12-21T08:55:05.879Z,53.20
2018-12-21T08:57:56.207Z,53.70
2018-12-21T09:00:46.103Z,53.63
2018-12-21T09:03:36.464Z,52.98
2018-12-21T09:06:24.599Z,52.08
2018-12-21T09:09:15.601Z,51.88
2018-12-21T09:12:04.928Z,52.03
2018-12-21T09:14:54.313Z,50.98
2018-12-21T09:17:43.477Z,50.38
2018-12-21T09:20:32.057Z,50.58
2018-12-21T09:23:21.609Z,49.67
2018-12-21T09:26:11.521Z,50.55
2018-12-21T09:28:59.802Z,50.55
2018-12-21T09:31:49.021Z,51.30
2018-12-21T09:34:37.598Z,51.10
2018-12-21T09:37:25.907Z,49.63
2018-12-21T09:40:16.450Z,49.53
2018-12-21T09:43:05.599Z,49.38
2018-12-21T09:45:53.426Z,50.63
2018-12-21T09:48:43.430Z,48.40
2018-12-21T09:51:30.901Z,48.15
2018-12-21T09:54:21.945Z,48.80
2018-12-21T09:57:10.593Z,47.85
2018-12-21T10:00:00.284Z,49.58
2018-12-21T10:02:48.532Z,48.78
2018-12-21T10:05:36.891Z,48.55
2018-12-21T10:08:27.078Z,47.95
2018-12-21T10:11:17.435Z,47.03
2018-12-21T10:14:04.975Z,47.43
2018-12-21T10:16:53.823Z,49.27
2018-12-21T10:19:42.836Z,47.83
2018-12-21T10:22:32.794Z,47.40
2018-12-21T10:25:21.446Z,45.55
2018-12-21T10:28:12.119Z,46.48
2018-12-21T10:31:01.917Z,45.73
2018-12-21T10:33:50.412Z,46.35
2018-12-21T10:36:41.182Z,45.30
2018-12-21T10:39:34.466Z,44.70
2018-12-21T10:42:24.052Z,44.33
2018-12-21T10:45:14.757Z,43.78
2018-12-21T10:48:04.959Z,44.60
2018-12-21T10:51:09.308Z,45.43
2018-12-21T10:54:00.535Z,45.45
2018-12-21T10:56:50.193Z,44.18
2018-12-21T10:59:44.541Z,44.03
2018-12-21T11:02:35.729Z,44.85
2018-12-21T11:05:27.512Z,42.88
2018-12-21T11:08:16.254Z,43.23
2018-12-21T11:11:05.099Z,42.93
2018-12-21T11:13:54.328Z,43.25
2018-12-21T11:16:43.073Z,42.93
2018-12-21T11:19:33.675Z,41.65
2018-12-21T11:22:22.664Z,43.73
2018-12-21T11:25:15.498Z,41.65
2018-12-21T11:28:08.091Z,40.92
2018-12-21T11:30:57.502Z,39.53
2018-12-21T11:33:49.588Z,39.80
2018-12-21T11:36:42.026Z,40.60
2018-12-21T11:39:30.362Z,41.08
2018-12-21T11:42:18.909Z,40.67
2018-12-21T11:45:08.719Z,39.65
2018-12-21T11:47:57.068Z,41.05
2018-12-21T11:50:46.188Z,40.25
2018-12-21T11:53:34.396Z,41.30
2018-12-21T11:56:23.518Z,38.60
2018-12-21T11:59:12.174Z,39.13
2018-12-21T12:02:00.015Z,37.55
2018-12-21T12:04:51.718Z,39.67
2018-12-21T12:07:39.063Z,39.58
2018-12-21T12:10:27.340Z,37.23
2018-12-21T12:13:14.809Z,61.15
2018-12-21T12:16:03.122Z,75.85
2018-12-21T12:18:52.039Z,134.30
2018-12-21T12:21:41.794Z,167.03
2018-12-21T12:24:30.052Z,245.52
2018-12-21T12:27:18.981Z,251.30
2018-12-21T12:30:09.074Z,248.97
2018-12-21T12:32:58.794Z,336.07
2018-12-21T12:35:46.835Z,322.73
2018-12-21T12:38:36.377Z,329.73
2018-12-21T12:41:26.236Z,343.17
2018-12-21T12:44:16.215Z,364.57
2018-12-21T12:47:05.280Z,353.73
2018-12-21T12:49:53.630Z,358.40
2018-12-21T12:52:45.737Z,403.60
2018-12-21T12:55:34.868Z,403.10
2018-12-21T12:58:23.458Z,417.80
2018-12-21T13:01:12.594Z,441.32
2018-12-21T13:04:01.466Z,437.92
2018-12-21T13:06:52.210Z,428.77
2018-12-21T13:09:41.040Z,428.50
2018-12-21T13:12:32.953Z,422.77
2018-12-21T13:15:21.778Z,416.25
2018-12-21T13:18:11.419Z,422.75
2018-12-21T13:21:00.325Z,419.77
2018-12-21T13:23:49.904Z,411.32
2018-12-21T13:26:41.073Z,406.75
2018-12-21T13:29:33.394Z,402.45
2018-12-21T13:32:28.536Z,396.50
2018-12-21T13:35:17.393Z,396.65
2018-12-21T13:38:06.696Z,384.67
2018-12-21T13:40:57.840Z,381.13
2018-12-21T13:43:47.366Z,372.95
2018-12-21T13:46:37.574Z,374.60
2018-12-21T13:49:26.976Z,369.00
2018-12-21T13:52:15.763Z,366.57
2018-12-21T13:55:04.946Z,366.45
2018-12-21T13:57:54.509Z,370.80
2018-12-21T14:00:43.732Z,360.85
2018-12-21T14:03:33.314Z,357.50
2018-12-21T14:06:22.738Z,358.40
2018-12-21T14:09:13.542Z,352.45
2018-12-21T14:12:02.172Z,349.73
2018-12-21T14:14:51.290Z,348.82
2018-12-21T14:17:39.894Z,348.82
2018-12-21T14:20:29.206Z,339.02
2018-12-21T14:23:18.357Z,340.30
2018-12-21T14:26:07.619Z,334.75
2018-12-21T14:28:56.880Z,336.55
2018-12-21T14:31:46.045Z,337.72
2018-12-21T14:34:35.024Z,330.30
2018-12-21T14:37:24.088Z,331.47
2018-12-21T14:40:13.060Z,338.80
2018-12-21T14:43:03.328Z,333.77
2018-12-21T14:45:52.852Z,329.55
2018-12-21T14:48:42.157Z,329.48
2018-12-21T14:51:31.410Z,329.87
2018-12-21T14:54:21.295Z,322.90
2018-12-21T14:57:11.325Z,329.90
2018-12-21T15:00:00.619Z,323.10
2018-12-21T15:02:49.385Z,322.95
2018-12-21T15:05:38.069Z,327.25
2018-12-21T15:08:27.034Z,321.45
2018-12-21T15:11:15.129Z,318.25
2018-12-21T15:14:03.039Z,320.17
2018-12-21T15:16:51.989Z,316.95
2018-12-21T15:19:40.352Z,316.60
2018-12-21T15:22:28.346Z,316.80
2018-12-21T15:25:16.266Z,308.50
2018-12-21T15:28:07.453Z,310.43
2018-12-21T15:30:57.107Z,300.57
2018-12-21T15:33:45.914Z,302.50
2018-12-21T15:36:34.452Z,304.95
2018-12-21T15:39:26.916Z,300.60
2018-12-21T15:42:19.095Z,296.75
2018-12-21T15:45:08.477Z,297.15
2018-12-21T15:47:56.717Z,295.25
2018-12-21T15:50:46.309Z,291.40
2018-12-21T15:53:35.148Z,292.07
2018-12-21T15:56:28.393Z,290.55
2018-12-21T15:59:18.533Z,297.72
2018-12-21T16:02:09.264Z,283.82
2018-12-21T16:05:00.268Z,287.68
2018-12-21T16:07:48.801Z,288.80
2018-12-21T16:10:36.809Z,287.72
2018-12-21T16:13:30.399Z,281.17
2018-12-21T16:16:24.310Z,278.52
2018-12-21T16:19:17.477Z,278.02
2018-12-21T16:22:07.109Z,280.95
2018-12-21T16:24:59.225Z,280.85
2018-12-21T16:27:49.584Z,277.27
2018-12-21T16:30:43.004Z,274.35
2018-12-21T16:33:31.933Z,275.45
2018-12-21T16:36:19.864Z,273.68
2018-12-21T16:39:10.149Z,269.60
2018-12-21T16:41:59.655Z,266.00
2018-12-21T16:44:47.601Z,270.97
2018-12-21T16:47:35.460Z,265.65
2018-12-21T16:50:28.296Z,262.70
2018-12-21T16:53:16.695Z,262.93
2018-12-21T16:56:12.307Z,268.33
2018-12-21T16:58:57.740Z,261.50
2018-12-21T17:01:46.318Z,260.17
2018-12-21T17:04:35.962Z,257.85
2018-12-21T17:07:23.722Z,257.70
2018-12-21T17:10:22.713Z,257.87
2018-12-21T17:13:10.981Z,256.75
2018-12-21T17:15:58.599Z,256.45
2018-12-21T17:18:46.979Z,251.12
2018-12-21T17:21:35.445Z,252.32
2018-12-21T17:24:25.241Z,250.90
2018-12-21T17:27:14.541Z,250.55
2018-12-21T17:30:04.084Z,245.07
2018-12-21T17:32:53.098Z,249.27
2018-12-21T17:35:44.595Z,244.13
2018-12-21T17:38:33.311Z,247.52
2018-12-21T17:41:22.541Z,243.57
2018-12-21T17:44:17.747Z,245.25
2018-12-21T17:47:07.221Z,236.60
2018-12-21T17:49:55.069Z,238.92
2018-12-21T17:52:42.928Z,237.65
2018-12-21T17:55:31.710Z,233.90
2018-12-21T17:58:21.391Z,234.65
2018-12-21T18:01:12.443Z,229.20
2018-12-21T18:04:13.938Z,235.32
2018-12-21T18:07:02.344Z,229.97
2018-12-21T18:09:50.774Z,230.27
2018-12-21T18:12:39.256Z,228.98
2018-12-21T18:15:27.811Z,224.18
2018-12-21T18:18:15.769Z,227.40
2018-12-21T18:21:09.117Z,223.40
2018-12-21T18:23:57.335Z,222.95
2018-12-21T18:26:45.371Z,217.87
2018-12-21T18:29:33.274Z,220.97
2018-12-21T18:32:39.714Z,219.00
2018-12-21T18:35:28.476Z,216.78
2018-12-21T18:38:23.855Z,211.57
2018-12-21T18:41:13.006Z,214.38
2018-12-21T18:44:05.176Z,211.85
2018-12-21T18:46:53.141Z,214.50
2018-12-21T18:49:44.421Z,205.57
2018-12-21T18:52:33.244Z,209.03
2018-12-21T18:55:22.600Z,208.07
2018-12-21T18:58:10.925Z,201.62
2018-12-21T19:00:59.580Z,208.13
2018-12-21T19:03:48.962Z,207.62
2018-12-21T19:06:36.540Z,203.25
2018-12-21T19:09:25.582Z,200.45
2018-12-21T19:12:13.651Z,200.72
2018-12-21T19:15:02.092Z,196.98
2018-12-21T19:17:51.245Z,193.85
2018-12-21T19:20:40.474Z,195.82
2018-12-21T19:23:28.477Z,190.55
2018-12-21T19:26:16.823Z,192.25
2018-12-21T19:29:08.462Z,190.00
2018-12-21T19:31:57.381Z,189.82
2018-12-21T19:34:45.411Z,186.62
2018-12-21T19:37:36.180Z,182.00
2018-12-21T19:40:24.420Z,186.07
2018-12-21T19:43:12.619Z,175.50
2018-12-21T19:46:01.294Z,183.50
2018-12-21T19:48:50.616Z,176.18
2018-12-21T19:51:44.850Z,181.32
2018-12-21T19:54:33.398Z,175.82
2018-12-21T19:57:21.111Z,171.65
2018-12-21T20:00:10.012Z,173.20
2018-12-21T20:02:58.800Z,168.93
2018-12-21T20:05:47.013Z,174.97
2018-12-21T20:08:34.727Z,168.57
2018-12-21T20:11:22.482Z,166.47
2018-12-21T20:14:15.228Z,166.80
2018-12-21T20:17:03.690Z,164.57
2018-12-21T20:19:52.310Z,164.18
2018-12-21T20:22:40.194Z,160.50
2018-12-21T20:25:28.356Z,158.93
2018-12-21T20:28:17.142Z,162.37
2018-12-21T20:31:05.597Z,159.67
2018-12-21T20:33:53.888Z,159.97
2018-12-21T20:36:49.400Z,160.80
2018-12-21T20:39:46.312Z,158.63
2018-12-21T20:42:35.006Z,154.05
2018-12-21T20:45:28.244Z,152.65
2018-12-21T20:48:16.643Z,153.02
2018-12-21T20:51:05.435Z,150.47
2018-12-21T20:53:54.320Z,152.60
2018-12-21T20:56:50.189Z,146.13
2018-12-21T20:59:38.711Z,146.60
2018-12-21T21:02:26.965Z,147.07
2018-12-21T21:05:14.931Z,145.38
2018-12-21T21:08:02.866Z,143.87
2018-12-21T21:10:50.989Z,140.30
2018-12-21T21:13:44.133Z,143.72
2018-12-21T21:16:31.674Z,144.87
2018-12-21T21:19:19.617Z,140.07
2018-12-21T21:22:07.731Z,141.18
2018-12-21T21:24:55.622Z,138.07
2018-12-21T21:27:49.620Z,139.35
2018-12-21T21:30:40.661Z,138.22
2018-12-21T21:33:28.832Z,133.35
2018-12-21T21:36:23.211Z,135.55
2018-12-21T21:39:20.898Z,131.50
2018-12-21T21:42:13.436Z,137.03
2018-12-21T21:45:00.825Z,134.45
2018-12-21T21:47:49.188Z,135.40
2018-12-21T21:50:37.215Z,133.07
2018-12-21T21:53:29.173Z,132.55
2018-12-21T21:56:22.478Z,130.20
2018-12-21T21:59:10.667Z,128.60
2018-12-21T22:01:58.617Z,128.53
2018-12-21T22:04:47.113Z,124.78
2018-12-21T22:07:37.008Z,129.20
2018-12-21T22:10:24.984Z,127.90
2018-12-21T22:13:13.172Z,128.07
2018-12-21T22:16:01.213Z,130.18
2018-12-21T22:18:50.077Z,126.58
2018-12-21T22:21:40.603Z,125.50
2018-12-21T22:24:29.286Z,125.72
2018-12-21T22:27:17.367Z,126.70
2018-12-21T22:30:10.363Z,123.97
2018-12-21T22:32:58.115Z,122.82
2018-12-21T22:35:46.184Z,127.15
2018-12-21T22:38:38.673Z,120.95
2018-12-21T22:41:28.456Z,122.05
2018-12-21T22:44:21.792Z,122.13
2018-12-21T22:47:14.254Z,119.87
2018-12-21T22:50:06.909Z,126.78
2018-12-21T22:52:55.079Z,121.95
2018-12-21T22:55:43.023Z,123.35
2018-12-21T22:58:31.194Z,128.30
2018-12-21T23:01:26.234Z,122.00
2018-12-21T23:04:15.164Z,123.82
2018-12-21T23:07:03.044Z,121.17
2018-12-21T23:09:50.962Z,119.50
2018-12-21T23:12:38.751Z,119.72
2018-12-21T23:15:26.734Z,117.57
2018-12-21T23:18:14.842Z,116.12
2018-12-21T23:21:02.706Z,115.72
2018-12-21T23:24:00.208Z,117.30
2018-12-21T23:26:48.080Z,117.95
2018-12-21T23:29:37.653Z,114.05
2018-12-21T23:32:26.020Z,115.62
2018-12-21T23:35:14.737Z,117.65
2018-12-21T23:38:06.575Z,115.00
2018-12-21T23:40:54.959Z,114.35
2018-12-21T23:43:45.161Z,114.85
2018-12-21T23:46:34.672Z,114.88
2018-12-21T23:49:22.795Z,115.67
2018-12-21T23:52:10.638Z,115.00
2018-12-21T23:54:58.600Z,114.52
2018-12-21T23:57:46.787Z,118.37
